createdAt,value
2018-05-27T00:00:07.455Z,1016.86
2018-05-27T00:01:07.393Z,1016.84
2018-05-27T00:02:07.293Z,1016.85
2018-05-27T00:03:07.219Z,1016.85
2018-05-27T00:04:07.144Z,1016.86
2018-05-27T00:05:07.069Z,1016.85
2018-05-27T00:06:06.985Z,1016.86
2018-05-27T00:07:06.905Z,1016.83
2018-05-27T00:08:06.834Z,1016.83
2018-05-27T00:09:06.757Z,1016.81
2018-05-27T00:10:06.694Z,1016.80
2018-05-27T00:11:06.594Z,1016.76
2018-05-27T00:12:06.519Z,1016.76
2018-05-27T00:13:06.445Z,1016.73
2018-05-27T00:14:06.374Z,1016.77
2018-05-27T00:15:06.283Z,1016.74
2018-05-27T00:16:06.206Z,1016.79
2018-05-27T00:17:06.147Z,1016.79
2018-05-27T00:18:06.056Z,1016.74
2018-05-27T00:19:05.982Z,1016.77
2018-05-27T00:20:05.898Z,1016.77
2018-05-27T00:21:05.820Z,1016.76
2018-05-27T00:22:05.746Z,1016.76
2018-05-27T00:23:05.671Z,1016.77
2018-05-27T00:24:05.583Z,1016.80
2018-05-27T00:25:05.508Z,1016.74
2018-05-27T00:26:05.435Z,1016.74
2018-05-27T00:27:05.358Z,1016.78
2018-05-27T00:28:05.271Z,1016.74
2018-05-27T00:29:05.200Z,1016.72
2018-05-27T00:30:05.122Z,1016.69
2018-05-27T00:31:05.048Z,1016.72
2018-05-27T00:32:04.975Z,1016.72
2018-05-27T00:33:04.884Z,1016.72
2018-05-27T00:34:04.809Z,1016.72
2018-05-27T00:35:04.734Z,1016.71
2018-05-27T00:36:04.660Z,1016.72
2018-05-27T00:37:04.573Z,1016.75
2018-05-27T00:38:04.498Z,1016.75
2018-05-27T00:39:04.428Z,1016.76
2018-05-27T00:40:04.350Z,1016.76
2018-05-27T00:41:04.260Z,1016.75
2018-05-27T00:42:04.189Z,1016.77
2018-05-27T00:43:04.110Z,1016.80
2018-05-27T00:44:04.035Z,1016.80
2018-05-27T00:45:03.953Z,1016.78
2018-05-27T00:46:03.876Z,1016.77
2018-05-27T00:47:03.799Z,1016.75
2018-05-27T00:48:03.723Z,1016.77
2018-05-27T00:49:03.637Z,1016.76
2018-05-27T00:50:03.563Z,1016.72
2018-05-27T00:51:03.485Z,1016.77
2018-05-27T00:52:03.411Z,1016.77
2018-05-27T00:53:03.335Z,1016.75
2018-05-27T00:54:03.249Z,1016.76
2018-05-27T00:55:03.173Z,1016.75
2018-05-27T00:56:03.100Z,1016.77
2018-05-27T00:57:03.024Z,1016.75
2018-05-27T00:58:02.936Z,1016.75
2018-05-27T00:59:02.871Z,1016.76
2018-05-27T01:00:02.788Z,1016.76
2018-05-27T01:01:02.711Z,1016.76
2018-05-27T01:02:02.625Z,1016.75
2018-05-27T01:03:02.550Z,1016.76
2018-05-27T01:04:02.475Z,1016.78
2018-05-27T01:05:02.401Z,1016.77
2018-05-27T01:06:02.313Z,1016.76
2018-05-27T01:07:02.250Z,1016.76
2018-05-27T01:08:02.162Z,1016.74
2018-05-27T01:09:02.087Z,1016.78
2018-05-27T01:10:02.002Z,1016.73
2018-05-27T01:11:01.929Z,1016.76
2018-05-27T01:12:01.857Z,1016.75
2018-05-27T01:13:01.782Z,1016.72
2018-05-27T01:14:01.690Z,1016.73
2018-05-27T01:15:01.617Z,1016.72
2018-05-27T01:16:01.538Z,1016.68
2018-05-27T01:17:01.463Z,1016.68
2018-05-27T01:18:01.388Z,1016.67
2018-05-27T01:19:01.302Z,1016.64
2018-05-27T01:20:01.233Z,1016.63
2018-05-27T01:21:01.152Z,1016.66
2018-05-27T01:22:01.065Z,1016.62
2018-05-27T01:23:01.004Z,1016.61
2018-05-27T01:24:00.914Z,1016.60
2018-05-27T01:25:00.839Z,1016.64
2018-05-27T01:26:00.763Z,1016.63
2018-05-27T01:27:00.677Z,1016.63
2018-05-27T01:28:00.603Z,1016.64
2018-05-27T01:29:00.529Z,1016.63
2018-05-27T01:30:00.453Z,1016.63
2018-05-27T01:31:00.365Z,1016.71
2018-05-27T01:32:00.289Z,1016.69
2018-05-27T01:33:00.215Z,1016.68
2018-05-27T01:34:00.128Z,1016.67
2018-05-27T01:35:00.054Z,1016.64
2018-05-27T01:35:59.982Z,1016.66
2018-05-27T01:36:59.905Z,1016.63
2018-05-27T01:37:59.815Z,1016.61
2018-05-27T01:38:59.740Z,1016.59
2018-05-27T01:39:59.666Z,1016.55
2018-05-27T01:40:59.603Z,1016.57
2018-05-27T01:41:59.504Z,1016.55
2018-05-27T01:42:59.429Z,1016.57
2018-05-27T01:43:59.356Z,1016.59
2018-05-27T01:44:59.279Z,1016.61
2018-05-27T01:45:59.190Z,1016.57
2018-05-27T01:46:59.129Z,1016.55
2018-05-27T01:47:59.040Z,1016.52
2018-05-27T01:48:58.970Z,1016.50
2018-05-27T01:49:58.880Z,1016.49
2018-05-27T01:50:58.805Z,1016.47
2018-05-27T01:51:58.730Z,1016.47
2018-05-27T01:52:58.642Z,1016.47
2018-05-27T01:53:58.568Z,1016.49
2018-05-27T01:54:58.496Z,1016.48
2018-05-27T01:55:58.417Z,1016.46
2018-05-27T01:56:58.331Z,1016.50
2018-05-27T01:57:58.256Z,1016.49
2018-05-27T01:58:58.182Z,1016.48
2018-05-27T01:59:58.111Z,1016.54
2018-05-27T02:00:58.017Z,1016.52
2018-05-27T02:01:57.943Z,1016.53
2018-05-27T02:02:57.881Z,1016.49
2018-05-27T02:03:57.783Z,1016.50
2018-05-27T02:04:57.713Z,1016.48
2018-05-27T02:05:57.636Z,1016.48
2018-05-27T02:06:57.558Z,1016.50
2018-05-27T02:07:57.483Z,1016.49
2018-05-27T02:08:57.394Z,1016.50
2018-05-27T02:09:57.320Z,1016.49
2018-05-27T02:10:57.244Z,1016.50
2018-05-27T02:11:57.157Z,1016.47
2018-05-27T02:12:57.083Z,1016.46
2018-05-27T02:13:57.014Z,1016.51
2018-05-27T02:14:56.921Z,1016.46
2018-05-27T02:15:56.844Z,1016.46
2018-05-27T02:16:56.771Z,1016.44
2018-05-27T02:17:56.695Z,1016.45
2018-05-27T02:18:56.608Z,1016.47
2018-05-27T02:19:56.532Z,1016.50
2018-05-27T02:20:56.459Z,1016.42
2018-05-27T02:21:56.383Z,1016.43
2018-05-27T02:22:56.295Z,1016.42
2018-05-27T02:23:56.220Z,1016.41
2018-05-27T02:24:56.147Z,1016.43
2018-05-27T02:25:56.084Z,1016.43
2018-05-27T02:26:55.985Z,1016.43
2018-05-27T02:27:55.909Z,1016.42
2018-05-27T02:28:55.835Z,1016.39
2018-05-27T02:29:55.746Z,1016.40
2018-05-27T02:30:55.671Z,1016.38
2018-05-27T02:31:55.597Z,1016.41
2018-05-27T02:32:55.510Z,1016.35
2018-05-27T02:33:55.435Z,1016.34
2018-05-27T02:34:55.360Z,1016.37
2018-05-27T02:35:55.285Z,1016.33
2018-05-27T02:36:55.197Z,1016.31
2018-05-27T02:37:55.125Z,1016.28
2018-05-27T02:38:55.050Z,1016.30
2018-05-27T02:39:54.961Z,1016.30
2018-05-27T02:40:54.894Z,1016.28
2018-05-27T02:41:54.811Z,1016.26
2018-05-27T02:42:54.736Z,1016.22
2018-05-27T02:43:54.661Z,1016.24
2018-05-27T02:44:54.573Z,1016.23
2018-05-27T02:45:54.501Z,1016.25
2018-05-27T02:46:54.411Z,1016.19
2018-05-27T02:47:54.341Z,1016.22
2018-05-27T02:48:54.262Z,1016.22
2018-05-27T02:49:54.175Z,1016.23
2018-05-27T02:50:54.108Z,1016.23
2018-05-27T02:51:54.027Z,1016.23
2018-05-27T02:52:53.950Z,1016.23
2018-05-27T02:53:53.862Z,1016.24
2018-05-27T02:54:53.788Z,1016.23
2018-05-27T02:55:53.717Z,1016.25
2018-05-27T02:56:53.626Z,1016.23
2018-05-27T02:57:53.556Z,1016.27
2018-05-27T02:58:53.474Z,1016.22
2018-05-27T02:59:53.399Z,1016.25
2018-05-27T03:00:53.313Z,1016.22
2018-05-27T03:01:53.237Z,1016.20
2018-05-27T03:02:53.163Z,1016.20
2018-05-27T03:03:53.075Z,1016.19
2018-05-27T03:04:53.000Z,1016.21
2018-05-27T03:05:52.925Z,1016.21
2018-05-27T03:06:52.857Z,1016.22
2018-05-27T03:07:52.764Z,1016.22
2018-05-27T03:08:52.689Z,1016.23
2018-05-27T03:09:52.621Z,1016.24
2018-05-27T03:10:52.525Z,1016.25
2018-05-27T03:11:52.450Z,1016.30
2018-05-27T03:12:52.375Z,1016.32
2018-05-27T03:13:52.290Z,1016.35
2018-05-27T03:14:52.215Z,1016.36
2018-05-27T03:15:52.139Z,1016.33
2018-05-27T03:16:52.064Z,1016.29
2018-05-27T03:17:51.976Z,1016.29
2018-05-27T03:18:51.902Z,1016.28
2018-05-27T03:19:51.826Z,1016.30
2018-05-27T03:20:51.739Z,1016.29
2018-05-27T03:21:51.664Z,1016.24
2018-05-27T03:22:51.592Z,1016.23
2018-05-27T03:23:51.501Z,1016.23
2018-05-27T03:24:51.427Z,1016.24
2018-05-27T03:25:51.352Z,1016.27
2018-05-27T03:26:51.277Z,1016.28
2018-05-27T03:27:51.192Z,1016.26
2018-05-27T03:28:51.118Z,1016.27
2018-05-27T03:29:51.040Z,1016.23
2018-05-27T03:30:50.954Z,1016.24
2018-05-27T03:31:50.879Z,1016.23
2018-05-27T03:32:50.802Z,1016.25
2018-05-27T03:33:50.720Z,1016.22
2018-05-27T03:34:50.641Z,1016.20
2018-05-27T03:35:50.567Z,1016.21
2018-05-27T03:36:50.491Z,1016.22
2018-05-27T03:37:50.403Z,1016.27
2018-05-27T03:38:50.329Z,1016.28
2018-05-27T03:39:50.242Z,1016.25
2018-05-27T03:40:50.166Z,1016.27
2018-05-27T03:41:50.093Z,1016.26
2018-05-27T03:42:50.025Z,1016.25
2018-05-27T03:43:49.929Z,1016.28
2018-05-27T03:44:49.856Z,1016.24
2018-05-27T03:45:49.780Z,1016.23
2018-05-27T03:46:49.693Z,1016.23
2018-05-27T03:47:49.617Z,1016.24
2018-05-27T03:48:49.545Z,1016.26
2018-05-27T03:49:49.456Z,1016.25
2018-05-27T03:50:49.379Z,1016.25
2018-05-27T03:51:49.304Z,1016.24
2018-05-27T03:52:49.230Z,1016.24
2018-05-27T03:53:49.143Z,1016.24
2018-05-27T03:54:49.070Z,1016.25
2018-05-27T03:55:48.993Z,1016.25
2018-05-27T03:56:48.905Z,1016.29
2018-05-27T03:57:48.832Z,1016.27
2018-05-27T03:58:48.760Z,1016.27
2018-05-27T03:59:48.670Z,1016.26
2018-05-27T04:00:48.594Z,1016.27
2018-05-27T04:01:48.520Z,1016.23
2018-05-27T04:02:48.434Z,1016.29
2018-05-27T04:03:48.355Z,1016.20
2018-05-27T04:04:48.282Z,1016.25
2018-05-27T04:05:48.206Z,1016.29
2018-05-27T04:06:48.122Z,1016.28
2018-05-27T04:07:48.046Z,1016.28
2018-05-27T04:08:47.970Z,1016.30
2018-05-27T04:09:47.882Z,1016.29
2018-05-27T04:10:47.809Z,1016.28
2018-05-27T04:11:47.736Z,1016.25
2018-05-27T04:12:47.667Z,1016.23
2018-05-27T04:13:47.571Z,1016.22
2018-05-27T04:14:47.499Z,1016.23
2018-05-27T04:15:47.420Z,1016.22
2018-05-27T04:16:47.338Z,1016.22
2018-05-27T04:17:47.276Z,1016.19
2018-05-27T04:18:47.182Z,1016.18
2018-05-27T04:19:47.096Z,1016.18
2018-05-27T04:20:47.035Z,1016.17
2018-05-27T04:21:46.946Z,1016.18
2018-05-27T04:22:46.874Z,1016.18
2018-05-27T04:23:46.805Z,1016.15
2018-05-27T04:24:46.708Z,1016.13
2018-05-27T04:25:46.634Z,1016.15
2018-05-27T04:26:46.573Z,1016.13
2018-05-27T04:27:46.476Z,1016.18
2018-05-27T04:28:46.400Z,1016.16
2018-05-27T04:29:46.322Z,1016.15
2018-05-27T04:30:46.234Z,1016.14
2018-05-27T04:31:46.173Z,1016.13
2018-05-27T04:32:46.084Z,1016.14
2018-05-27T04:33:46.009Z,1016.13
2018-05-27T04:34:45.934Z,1016.11
2018-05-27T04:35:45.848Z,1016.17
2018-05-27T04:36:45.772Z,1016.10
2018-05-27T04:37:45.686Z,1016.15
2018-05-27T04:38:45.610Z,1016.21
2018-05-27T04:39:45.535Z,1016.19
2018-05-27T04:40:45.473Z,1016.21
2018-05-27T04:41:45.373Z,1016.27
2018-05-27T04:42:45.298Z,1016.23
2018-05-27T04:43:45.224Z,1016.25
2018-05-27T04:44:45.148Z,1016.26
2018-05-27T04:45:45.074Z,1016.30
2018-05-27T04:46:44.985Z,1016.30
2018-05-27T04:47:44.914Z,1016.30
2018-05-27T04:48:44.837Z,1016.36
2018-05-27T04:49:44.754Z,1016.38
2018-05-27T04:50:44.673Z,1016.36
2018-05-27T04:51:44.599Z,1016.33
2018-05-27T04:52:44.531Z,1016.39
2018-05-27T04:53:44.438Z,1016.40
2018-05-27T04:54:44.361Z,1016.39
2018-05-27T04:55:44.285Z,1016.40
2018-05-27T04:56:44.212Z,1016.41
2018-05-27T04:57:44.139Z,1016.42
2018-05-27T04:58:44.061Z,1016.40
2018-05-27T04:59:43.976Z,1016.43
2018-05-27T05:00:43.900Z,1016.45
2018-05-27T05:01:43.828Z,1016.44
2018-05-27T05:02:43.750Z,1016.50
2018-05-27T05:03:43.675Z,1016.45
2018-05-27T05:04:43.587Z,1016.43
2018-05-27T05:05:43.514Z,1016.45
2018-05-27T05:06:43.438Z,1016.45
2018-05-27T05:07:43.376Z,1016.44
2018-05-27T05:08:43.288Z,1016.46
2018-05-27T05:09:43.201Z,1016.45
2018-05-27T05:10:43.138Z,1016.51
2018-05-27T05:11:43.051Z,1016.49
2018-05-27T05:12:42.977Z,1016.50
2018-05-27T05:13:42.901Z,1016.49
2018-05-27T05:14:42.828Z,1016.46
2018-05-27T05:15:42.738Z,1016.44
2018-05-27T05:16:42.663Z,1016.47
2018-05-27T05:17:42.588Z,1016.46
2018-05-27T05:18:42.514Z,1016.42
2018-05-27T05:19:42.439Z,1016.40
2018-05-27T05:20:42.352Z,1016.39
2018-05-27T05:21:42.277Z,1016.41
2018-05-27T05:22:42.202Z,1016.39
2018-05-27T05:23:42.129Z,1016.39
2018-05-27T05:24:42.053Z,1016.37
2018-05-27T05:25:41.978Z,1016.41
2018-05-27T05:26:41.889Z,1016.42
2018-05-27T05:27:41.855Z,1016.42
2018-05-27T05:28:41.740Z,1016.41
2018-05-27T05:29:41.665Z,1016.42
2018-05-27T05:30:41.591Z,1016.44
2018-05-27T05:31:41.504Z,1016.46
2018-05-27T05:32:41.433Z,1016.44
2018-05-27T05:33:41.354Z,1016.41
2018-05-27T05:34:41.279Z,1016.43
2018-05-27T05:35:41.204Z,1016.45
2018-05-27T05:36:41.134Z,1016.49
2018-05-27T05:37:41.041Z,1016.44
2018-05-27T05:38:40.966Z,1016.47
2018-05-27T05:39:40.891Z,1016.45
2018-05-27T05:40:40.816Z,1016.48
2018-05-27T05:41:40.742Z,1016.52
2018-05-27T05:42:40.680Z,1016.55
2018-05-27T05:43:40.599Z,1016.54
2018-05-27T05:44:40.505Z,1016.51
2018-05-27T05:45:40.431Z,1016.52
2018-05-27T05:46:40.354Z,1016.48
2018-05-27T05:47:40.281Z,1016.51
2018-05-27T05:48:40.193Z,1016.49
2018-05-27T05:49:40.117Z,1016.47
2018-05-27T05:50:40.042Z,1016.45
2018-05-27T05:51:39.968Z,1016.46
2018-05-27T05:52:39.893Z,1016.48
2018-05-27T05:53:39.831Z,1016.48
2018-05-27T05:54:39.732Z,1016.49
2018-05-27T05:55:39.659Z,1016.53
2018-05-27T05:56:39.581Z,1016.55
2018-05-27T05:57:39.508Z,1016.55
2018-05-27T05:58:39.432Z,1016.56
2018-05-27T05:59:39.357Z,1016.56
2018-05-27T06:00:39.269Z,1016.58
2018-05-27T06:01:39.194Z,1016.59
2018-05-27T06:02:39.119Z,1016.60
2018-05-27T06:03:39.044Z,1016.61
2018-05-27T06:04:38.970Z,1016.64
2018-05-27T06:05:38.895Z,1016.60
2018-05-27T06:06:38.820Z,1016.63
2018-05-27T06:07:38.733Z,1016.60
2018-05-27T06:08:38.659Z,1016.62
2018-05-27T06:09:38.583Z,1016.59
2018-05-27T06:10:38.508Z,1016.60
2018-05-27T06:11:38.434Z,1016.63
2018-05-27T06:12:38.358Z,1016.64
2018-05-27T06:13:38.314Z,1016.64
2018-05-27T06:14:38.196Z,1016.61
2018-05-27T06:15:38.122Z,1016.63
2018-05-27T06:16:38.045Z,1016.66
2018-05-27T06:17:37.970Z,1016.64
2018-05-27T06:18:37.896Z,1016.64
2018-05-27T06:19:37.873Z,1016.66
2018-05-27T06:20:37.746Z,1016.70
2018-05-27T06:21:37.659Z,1016.69
2018-05-27T06:22:37.589Z,1016.69
2018-05-27T06:23:37.509Z,1016.67
2018-05-27T06:24:37.435Z,1016.64
2018-05-27T06:25:37.370Z,1016.65
2018-05-27T06:26:37.285Z,1016.67
2018-05-27T06:27:37.211Z,1016.69
2018-05-27T06:28:37.124Z,1016.70
2018-05-27T06:29:37.060Z,1016.70
2018-05-27T06:30:36.972Z,1016.69
2018-05-27T06:31:36.898Z,1016.76
2018-05-27T06:32:36.822Z,1016.77
2018-05-27T06:33:36.747Z,1016.78
2018-05-27T06:34:36.672Z,1016.82
2018-05-27T06:35:36.597Z,1016.79
2018-05-27T06:36:36.522Z,1016.78
2018-05-27T06:37:36.436Z,1016.74
2018-05-27T06:38:36.361Z,1016.75
2018-05-27T06:39:36.286Z,1016.74
2018-05-27T06:40:36.211Z,1016.75
2018-05-27T06:41:36.136Z,1016.75
2018-05-27T06:42:36.061Z,1016.80
2018-05-27T06:43:35.987Z,1016.83
2018-05-27T06:44:35.912Z,1016.82
2018-05-27T06:45:35.836Z,1016.86
2018-05-27T06:46:35.751Z,1016.86
2018-05-27T06:47:35.674Z,1016.83
2018-05-27T06:48:35.599Z,1016.82
2018-05-27T06:49:35.526Z,1016.79
2018-05-27T06:50:35.463Z,1016.80
2018-05-27T06:51:35.374Z,1016.78
2018-05-27T06:52:35.300Z,1016.79
2018-05-27T06:53:35.224Z,1016.79
2018-05-27T06:54:35.152Z,1016.81
2018-05-27T06:55:35.075Z,1016.85
2018-05-27T06:56:34.989Z,1016.83
2018-05-27T06:57:34.925Z,1016.86
2018-05-27T06:58:34.839Z,1016.87
2018-05-27T06:59:34.764Z,1016.90
2018-05-27T07:00:34.688Z,1016.87
2018-05-27T07:01:34.613Z,1016.90
2018-05-27T07:02:34.539Z,1016.86
2018-05-27T07:03:34.463Z,1016.87
2018-05-27T07:04:34.460Z,1016.85
2018-05-27T07:05:34.314Z,1016.86
2018-05-27T07:06:34.240Z,1016.87
2018-05-27T07:07:34.169Z,1016.87
2018-05-27T07:08:34.090Z,1016.90
2018-05-27T07:09:34.014Z,1016.87
2018-05-27T07:10:33.940Z,1016.86
2018-05-27T07:11:33.883Z,1016.84
2018-05-27T07:12:33.778Z,1016.86
2018-05-27T07:13:33.715Z,1016.82
2018-05-27T07:14:33.628Z,1016.85
2018-05-27T07:15:33.552Z,1016.81
2018-05-27T07:16:33.476Z,1016.82
2018-05-27T07:17:33.402Z,1016.78
2018-05-27T07:18:33.326Z,1016.77
2018-05-27T07:19:33.253Z,1016.78
2018-05-27T07:21:33.103Z,1016.79
2018-05-27T07:22:33.028Z,1016.77
2018-05-27T07:23:32.952Z,1016.80
2018-05-27T07:24:32.880Z,1016.84
2018-05-27T07:25:32.804Z,1016.82
2018-05-27T07:26:32.742Z,1016.84
2018-05-27T07:27:32.666Z,1016.83
2018-05-27T07:28:32.591Z,1016.84
2018-05-27T07:29:32.517Z,1016.86
2018-05-27T07:30:32.441Z,1016.86
2018-05-27T07:31:32.367Z,1016.86
2018-05-27T07:32:32.303Z,1016.83
2018-05-27T07:33:32.241Z,1016.88
2018-05-27T07:34:32.198Z,1016.87
2018-05-27T07:35:32.078Z,1016.93
2018-05-27T07:36:32.004Z,1016.90
2018-05-27T07:37:31.942Z,1016.88
2018-05-27T07:38:31.866Z,1016.87
2018-05-27T07:39:31.792Z,1016.91
2018-05-27T07:40:31.716Z,1016.94
2018-05-27T07:41:31.654Z,1016.98
2018-05-27T07:42:31.592Z,1016.99
2018-05-27T07:43:31.504Z,1016.98
2018-05-27T07:44:31.447Z,1016.98
2018-05-27T07:45:31.367Z,1017.02
2018-05-27T07:46:31.308Z,1016.99
2018-05-27T07:47:31.230Z,1016.98
2018-05-27T07:48:31.156Z,1016.97
2018-05-27T07:49:31.095Z,1016.95
2018-05-27T07:50:31.029Z,1017.01
2018-05-27T07:51:30.956Z,1016.97
2018-05-27T07:52:30.943Z,1016.97
2018-05-27T07:53:30.823Z,1016.95
2018-05-27T07:54:30.754Z,1016.91
2018-05-27T07:55:30.681Z,1016.94
2018-05-27T07:56:30.621Z,1016.90
2018-05-27T07:57:30.543Z,1016.91
2018-05-27T07:58:30.522Z,1016.93
2018-05-27T07:59:30.405Z,1016.89
2018-05-27T08:00:30.344Z,1016.86
2018-05-27T08:01:30.268Z,1016.91
2018-05-27T08:02:30.206Z,1016.87
2018-05-27T08:03:30.143Z,1016.89
2018-05-27T08:04:30.070Z,1016.89
2018-05-27T08:05:30.010Z,1016.91
2018-05-27T08:06:29.933Z,1016.91
2018-05-27T08:07:29.870Z,1016.95
2018-05-27T08:08:29.807Z,1016.96
2018-05-27T08:09:29.733Z,1016.94
2018-05-27T08:10:29.669Z,1016.97
2018-05-27T08:11:29.607Z,1017.00
2018-05-27T08:12:29.533Z,1016.98
2018-05-27T08:13:29.470Z,1016.97
2018-05-27T08:14:29.407Z,1016.99
2018-05-27T08:15:29.345Z,1017.00
2018-05-27T08:16:29.275Z,1017.01
2018-05-27T08:17:29.209Z,1017.05
2018-05-27T08:18:29.150Z,1017.05
2018-05-27T08:19:29.072Z,1017.06
2018-05-27T08:20:29.008Z,1017.02
2018-05-27T08:21:28.946Z,1017.06
2018-05-27T08:22:28.897Z,1017.10
2018-05-27T08:23:28.809Z,1017.15
2018-05-27T08:24:28.747Z,1017.14
2018-05-27T08:25:28.684Z,1017.14
2018-05-27T08:26:28.622Z,1017.13
2018-05-27T08:27:28.559Z,1017.15
2018-05-27T08:28:28.485Z,1017.15
2018-05-27T08:29:28.422Z,1017.16
2018-05-27T08:30:28.359Z,1017.11
2018-05-27T08:31:28.298Z,1017.15
2018-05-27T08:32:28.234Z,1017.16
2018-05-27T08:33:28.161Z,1017.15
2018-05-27T08:34:28.099Z,1017.16
2018-05-27T08:35:28.034Z,1017.16
2018-05-27T08:36:27.973Z,1017.14
2018-05-27T08:37:27.911Z,1017.16
2018-05-27T08:38:27.836Z,1017.18
2018-05-27T08:39:27.774Z,1017.16
2018-05-27T08:40:27.710Z,1017.15
2018-05-27T08:41:27.649Z,1017.17
2018-05-27T08:42:27.585Z,1017.15
2018-05-27T08:43:27.570Z,1017.16
2018-05-27T08:44:27.448Z,1017.14
2018-05-27T08:45:27.388Z,1017.10
2018-05-27T08:46:27.324Z,1017.12
2018-05-27T08:47:27.261Z,1017.12
2018-05-27T08:48:27.199Z,1017.14
2018-05-27T08:49:27.136Z,1017.18
2018-05-27T08:50:27.062Z,1017.16
2018-05-27T08:51:27.000Z,1017.18
2018-05-27T08:52:26.954Z,1017.18
2018-05-27T08:53:26.882Z,1017.19
2018-05-27T08:54:26.811Z,1017.23
2018-05-27T08:55:26.749Z,1017.24
2018-05-27T08:56:26.676Z,1017.25
2018-05-27T08:57:26.612Z,1017.24
2018-05-27T08:58:26.550Z,1017.30
2018-05-27T08:59:26.501Z,1017.27
2018-05-27T09:00:26.429Z,1017.28
2018-05-27T09:01:26.419Z,1017.28
2018-05-27T09:02:26.300Z,1017.26
2018-05-27T09:03:26.226Z,1017.34
2018-05-27T09:04:26.162Z,1017.29
2018-05-27T09:05:26.100Z,1017.30
2018-05-27T09:06:26.038Z,1017.31
2018-05-27T09:07:25.977Z,1017.27
2018-05-27T09:08:25.912Z,1017.28
2018-05-27T09:09:25.852Z,1017.28
2018-05-27T09:10:25.792Z,1017.30
2018-05-27T09:11:25.727Z,1017.31
2018-05-27T09:12:25.652Z,1017.29
2018-05-27T09:13:25.589Z,1017.32
2018-05-27T09:14:25.526Z,1017.26
2018-05-27T09:15:25.509Z,1017.28
2018-05-27T09:16:25.402Z,1017.26
2018-05-27T09:17:25.339Z,1017.30
2018-05-27T09:18:25.283Z,1017.26
2018-05-27T09:19:25.245Z,1017.28
2018-05-27T09:20:25.152Z,1017.27
2018-05-27T09:21:25.089Z,1017.28
2018-05-27T09:22:25.027Z,1017.31
2018-05-27T09:23:24.966Z,1017.28
2018-05-27T09:24:24.894Z,1017.30
2018-05-27T09:25:24.839Z,1017.34
2018-05-27T09:26:24.778Z,1017.37
2018-05-27T09:27:24.708Z,1017.36
2018-05-27T09:28:24.642Z,1017.34
2018-05-27T09:29:24.578Z,1017.32
2018-05-27T09:30:24.515Z,1017.33
2018-05-27T09:31:24.454Z,1017.32
2018-05-27T09:32:24.391Z,1017.29
2018-05-27T09:33:24.329Z,1017.29
2018-05-27T09:34:24.272Z,1017.28
2018-05-27T09:35:24.204Z,1017.24
2018-05-27T09:36:24.144Z,1017.22
2018-05-27T09:37:24.079Z,1017.15
2018-05-27T09:38:24.018Z,1017.00
2018-05-27T09:39:23.955Z,1017.01
2018-05-27T09:40:23.891Z,1017.23
2018-05-27T09:41:23.829Z,1017.07
2018-05-27T09:42:23.767Z,1017.11
2018-05-27T09:43:23.704Z,1016.89
2018-05-27T09:44:23.630Z,1016.90
2018-05-27T09:45:23.639Z,1016.90
2018-05-27T09:46:23.555Z,1016.93
2018-05-27T09:47:23.442Z,1017.02
2018-05-27T09:48:23.380Z,1017.13
2018-05-27T09:49:23.305Z,1017.07
2018-05-27T09:50:23.242Z,1017.05
2018-05-27T09:51:23.188Z,1017.07
2018-05-27T09:52:23.117Z,1016.94
2018-05-27T09:53:23.043Z,1016.93
2018-05-27T09:54:22.981Z,1016.90
2018-05-27T09:55:22.918Z,1016.93
2018-05-27T09:56:22.846Z,1016.97
2018-05-27T09:57:22.782Z,1017.06
2018-05-27T09:58:22.718Z,1016.94
2018-05-27T09:59:22.644Z,1016.92
2018-05-27T10:00:22.581Z,1016.99
2018-05-27T10:01:22.520Z,1016.92
2018-05-27T10:02:22.457Z,1016.87
2018-05-27T10:03:22.382Z,1016.89
2018-05-27T10:04:22.322Z,1016.98
2018-05-27T10:05:22.260Z,1017.09
2018-05-27T10:06:22.194Z,1017.08
2018-05-27T10:07:22.119Z,1016.81
2018-05-27T10:08:22.057Z,1016.79
2018-05-27T10:09:21.994Z,1016.76
2018-05-27T10:10:21.921Z,1016.75
2018-05-27T10:11:21.858Z,1016.71
2018-05-27T10:12:21.794Z,1016.67
2018-05-27T10:13:21.721Z,1016.67
2018-05-27T10:14:21.658Z,1016.66
2018-05-27T10:15:21.596Z,1016.70
2018-05-27T10:16:21.522Z,1016.66
2018-05-27T10:17:21.459Z,1016.65
2018-05-27T10:18:21.396Z,1016.63
2018-05-27T10:19:21.333Z,1016.59
2018-05-27T10:20:21.260Z,1016.58
2018-05-27T10:21:21.195Z,1016.59
2018-05-27T10:22:21.133Z,1016.64
2018-05-27T10:23:21.064Z,1016.66
2018-05-27T10:24:20.996Z,1016.65
2018-05-27T10:25:20.923Z,1016.64
2018-05-27T10:26:20.859Z,1016.60
2018-05-27T10:27:20.797Z,1016.63
2018-05-27T10:28:20.721Z,1016.61
2018-05-27T10:29:20.663Z,1016.60
2018-05-27T10:30:20.597Z,1016.61
2018-05-27T10:31:20.524Z,1016.57
2018-05-27T10:32:20.460Z,1016.57
2018-05-27T10:33:20.390Z,1016.54
2018-05-27T10:34:20.322Z,1016.54
2018-05-27T10:35:20.260Z,1016.63
2018-05-27T10:36:20.185Z,1016.61
2018-05-27T10:37:20.125Z,1016.60
2018-05-27T10:38:20.061Z,1016.66
2018-05-27T10:39:19.986Z,1016.60
2018-05-27T10:40:19.923Z,1016.62
2018-05-27T10:41:19.848Z,1016.53
2018-05-27T10:42:19.785Z,1016.59
2018-05-27T10:43:19.723Z,1016.55
2018-05-27T10:44:19.649Z,1016.59
2018-05-27T10:45:19.587Z,1016.59
2018-05-27T10:46:19.524Z,1016.64
2018-05-27T10:47:19.448Z,1016.71
2018-05-27T10:48:19.387Z,1016.80
2018-05-27T10:49:19.325Z,1016.81
2018-05-27T10:50:19.250Z,1016.75
2018-05-27T10:51:19.188Z,1016.77
2018-05-27T10:52:19.125Z,1016.73
2018-05-27T10:53:19.062Z,1016.73
2018-05-27T10:54:19.001Z,1016.68
2018-05-27T10:55:18.926Z,1016.69
2018-05-27T10:56:18.864Z,1016.65
2018-05-27T10:57:18.800Z,1016.68
2018-05-27T10:58:18.738Z,1016.69
2018-05-27T10:59:18.691Z,1016.74
2018-05-27T11:00:18.615Z,1016.65
2018-05-27T11:01:18.563Z,1016.64
2018-05-27T11:02:18.488Z,1016.60
2018-05-27T11:03:18.425Z,1016.61
2018-05-27T11:04:18.364Z,1016.57
2018-05-27T11:05:18.301Z,1016.51
2018-05-27T11:06:18.239Z,1016.53
2018-05-27T11:07:18.176Z,1016.57
2018-05-27T11:08:18.115Z,1016.50
2018-05-27T11:09:18.052Z,1016.52
2018-05-27T11:10:17.994Z,1016.55
2018-05-27T11:11:17.926Z,1016.53
2018-05-27T11:12:17.866Z,1016.47
2018-05-27T11:13:17.814Z,1016.54
2018-05-27T11:14:17.740Z,1016.53
2018-05-27T11:15:17.677Z,1016.48
2018-05-27T11:16:17.615Z,1016.49
2018-05-27T11:17:17.552Z,1016.43
2018-05-27T11:18:17.490Z,1016.41
2018-05-27T11:19:17.429Z,1016.23
2018-05-27T11:20:17.377Z,1016.26
2018-05-27T11:21:17.316Z,1016.28
2018-05-27T11:22:17.266Z,1016.47
2018-05-27T11:23:17.198Z,1016.45
2018-05-27T11:24:17.128Z,1016.39
2018-05-27T11:25:17.066Z,1016.38
2018-05-27T11:26:17.003Z,1016.38
2018-05-27T11:27:16.942Z,1016.36
2018-05-27T11:28:16.878Z,1016.32
2018-05-27T11:29:16.833Z,1016.33
2018-05-27T11:30:16.768Z,1016.31
2018-05-27T11:31:16.703Z,1016.31
2018-05-27T11:32:16.642Z,1016.26
2018-05-27T11:33:16.579Z,1016.23
2018-05-27T11:34:16.518Z,1016.25
2018-05-27T11:35:16.454Z,1016.27
2018-05-27T11:36:16.392Z,1016.22
2018-05-27T11:37:16.329Z,1016.18
2018-05-27T11:38:16.267Z,1016.17
2018-05-27T11:39:16.205Z,1016.12
2018-05-27T11:40:16.155Z,1016.08
2018-05-27T11:41:16.093Z,1016.07
2018-05-27T11:42:16.029Z,1015.94
2018-05-27T11:43:15.967Z,1015.89
2018-05-27T11:44:15.906Z,1015.89
2018-05-27T11:45:15.843Z,1015.92
2018-05-27T11:46:15.792Z,1015.98
2018-05-27T11:47:15.718Z,1016.02
2018-05-27T11:48:15.661Z,1015.84
2018-05-27T11:49:15.606Z,1015.81
2018-05-27T11:50:15.546Z,1015.82
2018-05-27T11:51:15.481Z,1015.75
2018-05-27T11:52:15.419Z,1015.77
2018-05-27T11:53:15.356Z,1015.76
2018-05-27T11:54:15.301Z,1015.77
2018-05-27T11:55:15.231Z,1015.80
2018-05-27T11:56:15.173Z,1015.82
2018-05-27T11:57:15.106Z,1015.76
2018-05-27T11:58:15.044Z,1015.88
2018-05-27T11:59:14.981Z,1015.70
2018-05-27T12:00:14.923Z,1015.72
2018-05-27T12:01:14.870Z,1015.67
2018-05-27T12:02:14.795Z,1015.66
2018-05-27T12:03:14.719Z,1015.64
2018-05-27T12:04:14.657Z,1015.60
2018-05-27T12:05:14.597Z,1015.68